Etusivu
METAR-TAF:

METAR-TAF

Lentoasemat :

Regional_Airport

Clinton, Oklahoma, Yhdysvallat

Leveyspiiri: 35-32-17N, Pituuspiiri: 098-55-17W, korkeus merenpinnasta: 492 m

Tämänhetkinen sää

Tämä raportti tehtiin 12 minuuttia sitten, kello 23.35 UTC
Tuuli 9 kn idästä/kaakosta
Lämpötila 32°C
Kosteus 32%
Ilmanpaine 1017 hPa
Näkyvyys: 16.1 km
selkeää

METAR: KCLK 192335Z AUTO 12009KT 10SM CLR 32/13 A3003 RMK AO2

Aika: 18:47 (23:47 UTC)


TAF: puuttuu

Säähavainnot ja -ennusteet yli 4000 lentoasemalta (METAR- ja TAF-raportit).

Käytössä olevat sääasemat on merkitty karttaan keltaisilla ja punaisilla pisteillä.

Aseta hiiri pisteen päälle nähdäksesi sääaseman nimen.

Klikkaa sitten nähdäksesi säähavainnot ja -ennusteet.

Kartan vaihtaminen: klikkaa mustalla rastilla varustettuja vihreitä pisteitä, niin voit zoomata sisään; viivalla varustettua vihreää pistettä, niin voit zoomata ulos tai vihreitä nuolia, niin pääset viereisille kartoille.


METAR-TAF: